createdAt,value
2023-02-14T00:00:21.805Z,3.78
2023-02-14T00:03:10.880Z,3.78
2023-02-14T00:05:39.786Z,3.77
2023-02-14T00:08:08.382Z,3.77
2023-02-14T00:10:38.087Z,3.75
2023-02-14T00:13:07.005Z,3.77
2023-02-14T00:15:38.059Z,3.77
2023-02-14T00:18:06.780Z,3.76
2023-02-14T00:20:36.614Z,3.74
2023-02-14T00:23:05.828Z,3.74
2023-02-14T00:25:35.311Z,3.73
2023-02-14T00:28:04.143Z,3.72
2023-02-14T00:30:34.663Z,3.73
2023-02-14T00:33:07.799Z,3.72
2023-02-14T00:35:39.311Z,3.71
2023-02-14T00:38:09.343Z,3.68
2023-02-14T00:40:38.032Z,3.66
2023-02-14T00:43:06.646Z,3.65
2023-02-14T00:45:35.524Z,3.63
2023-02-14T00:48:05.821Z,3.61
2023-02-14T00:50:34.582Z,3.60
2023-02-14T00:53:03.368Z,3.60
2023-02-14T00:55:32.160Z,3.60
2023-02-14T00:58:01.103Z,3.59
2023-02-14T01:00:31.299Z,3.59
2023-02-14T01:03:00.123Z,3.59
2023-02-14T01:05:29.152Z,3.60
2023-02-14T01:07:58.092Z,3.62
2023-02-14T01:10:29.185Z,3.62
2023-02-14T01:13:00.678Z,3.62
2023-02-14T01:15:32.910Z,3.62
2023-02-14T01:18:01.742Z,3.60
2023-02-14T01:20:30.999Z,3.58
2023-02-14T01:23:00.237Z,3.57
2023-02-14T01:25:30.625Z,3.54
2023-02-14T01:28:01.362Z,3.51
2023-02-14T01:30:33.429Z,3.50
2023-02-14T01:33:02.820Z,3.53
2023-02-14T01:35:33.229Z,3.52
2023-02-14T01:38:02.060Z,3.50
2023-02-14T01:40:30.942Z,3.48
2023-02-14T01:43:00.348Z,3.47
2023-02-14T01:45:32.765Z,3.44
2023-02-14T01:48:02.029Z,3.40
2023-02-14T01:50:34.676Z,3.37
2023-02-14T01:53:06.775Z,3.36
2023-02-14T01:55:42.610Z,3.35
2023-02-14T01:58:14.854Z,3.33
2023-02-14T02:00:57.707Z,3.33
2023-02-14T02:03:32.540Z,3.33
2023-02-14T02:06:08.544Z,3.33
2023-02-14T02:08:43.290Z,3.30
2023-02-14T02:11:12.294Z,3.26
2023-02-14T02:13:41.427Z,3.23
2023-02-14T02:16:34.600Z,3.23
2023-02-14T02:19:27.577Z,3.23
2023-02-14T02:22:10.115Z,3.26
2023-02-14T02:24:57.814Z,3.29
2023-02-14T02:28:00.104Z,3.31
2023-02-14T02:31:11.663Z,3.30
2023-02-14T02:34:13.325Z,3.25
2023-02-14T02:37:03.065Z,3.22
2023-02-14T02:39:53.112Z,3.20
2023-02-14T02:42:33.445Z,3.17
2023-02-14T02:45:11.977Z,3.16
2023-02-14T02:47:46.793Z,3.15
2023-02-14T02:50:46.089Z,3.14
2023-02-14T02:53:23.050Z,3.13
2023-02-14T02:56:18.949Z,3.10
2023-02-14T02:58:52.603Z,3.07
2023-02-14T03:01:24.247Z,3.04
2023-02-14T03:04:19.145Z,3.03
2023-02-14T03:06:48.738Z,3.07
2023-02-14T03:09:49.580Z,3.08
2023-02-14T03:12:38.443Z,3.08
2023-02-14T03:15:16.618Z,3.06
2023-02-14T03:17:55.367Z,3.07
2023-02-14T03:20:38.575Z,3.04
2023-02-14T03:23:14.868Z,3.02
2023-02-14T03:25:55.365Z,3.01
2023-02-14T03:28:34.476Z,3.00
2023-02-14T03:31:15.094Z,2.98
2023-02-14T03:33:53.237Z,2.96
2023-02-14T03:36:26.019Z,2.95
2023-02-14T03:39:05.571Z,2.95
2023-02-14T03:41:39.580Z,2.94
2023-02-14T03:44:11.251Z,2.93
2023-02-14T03:46:47.348Z,2.88
2023-02-14T03:49:19.945Z,2.87
2023-02-14T03:51:52.439Z,2.89
2023-02-14T03:54:24.258Z,2.90
2023-02-14T03:56:59.979Z,2.87
2023-02-14T03:59:29.854Z,2.88
2023-02-14T04:02:06.322Z,2.91
2023-02-14T04:04:38.802Z,2.90
2023-02-14T04:07:16.190Z,2.88
2023-02-14T04:09:51.482Z,2.84
2023-02-14T04:12:32.277Z,2.80
2023-02-14T04:15:06.016Z,2.80
2023-02-14T04:17:53.259Z,2.79
2023-02-14T04:20:32.472Z,2.77
2023-02-14T04:23:03.304Z,2.78
2023-02-14T04:25:33.435Z,2.79
2023-02-14T04:28:02.128Z,2.79
2023-02-14T04:30:33.644Z,2.76
2023-02-14T04:33:04.696Z,2.74
2023-02-14T04:35:33.671Z,2.74
2023-02-14T04:38:10.367Z,2.74
2023-02-14T04:40:39.232Z,2.72
2023-02-14T04:43:08.878Z,2.72
2023-02-14T04:45:40.710Z,2.74
2023-02-14T04:48:13.886Z,2.77
2023-02-14T04:50:43.223Z,2.75
2023-02-14T04:53:13.198Z,2.75
2023-02-14T04:55:42.953Z,2.72
2023-02-14T04:58:14.557Z,2.70
2023-02-14T05:00:44.696Z,2.68
2023-02-14T05:03:15.930Z,2.66
2023-02-14T05:05:45.626Z,2.63
2023-02-14T05:08:15.811Z,2.65
2023-02-14T05:10:45.482Z,2.63
2023-02-14T05:13:14.932Z,2.63
2023-02-14T05:15:46.082Z,2.65
2023-02-14T05:18:17.724Z,2.65
2023-02-14T05:20:50.578Z,2.66
2023-02-14T05:23:21.346Z,2.66
2023-02-14T05:25:50.977Z,2.64
2023-02-14T05:28:20.558Z,2.64
2023-02-14T05:30:53.270Z,2.63
2023-02-14T05:33:25.508Z,2.59
2023-02-14T05:35:56.958Z,2.58
2023-02-14T05:38:25.948Z,2.58
2023-02-14T05:40:54.872Z,2.59
2023-02-14T05:43:35.335Z,2.61
2023-02-14T05:46:08.507Z,2.59
2023-02-14T05:48:37.926Z,2.57
2023-02-14T05:51:08.842Z,2.56
2023-02-14T05:53:37.792Z,2.55
2023-02-14T05:56:07.254Z,2.55
2023-02-14T05:58:36.244Z,2.55
2023-02-14T06:01:05.332Z,2.55
2023-02-14T06:03:34.190Z,2.55
2023-02-14T06:06:03.128Z,2.54
2023-02-14T06:08:32.181Z,2.57
2023-02-14T06:11:01.138Z,2.56
2023-02-14T06:13:30.368Z,2.55
2023-02-14T06:15:58.905Z,2.54
2023-02-14T06:18:29.109Z,2.52
2023-02-14T06:20:58.195Z,2.50
2023-02-14T06:23:27.245Z,2.48
2023-02-14T06:25:55.896Z,2.51
2023-02-14T06:28:24.781Z,2.52
2023-02-14T06:30:53.628Z,2.52
2023-02-14T06:33:22.560Z,2.52
2023-02-14T06:35:54.311Z,2.49
2023-02-14T06:38:22.822Z,2.44
2023-02-14T06:40:51.422Z,2.40
2023-02-14T06:43:22.516Z,2.35
2023-02-14T06:45:52.397Z,2.35
2023-02-14T06:48:21.013Z,2.38
2023-02-14T06:50:49.657Z,2.42
2023-02-14T06:53:18.232Z,2.44
2023-02-14T06:55:48.487Z,2.45
2023-02-14T06:58:18.437Z,2.46
2023-02-14T07:00:48.237Z,2.46
2023-02-14T07:03:17.911Z,2.46
2023-02-14T07:05:49.353Z,2.46
2023-02-14T07:08:18.182Z,2.46
2023-02-14T07:10:47.668Z,2.47
2023-02-14T07:13:16.290Z,2.47
2023-02-14T07:15:47.262Z,2.51
2023-02-14T07:18:16.066Z,2.57
2023-02-14T07:20:47.769Z,2.63
2023-02-14T07:23:16.294Z,2.70
2023-02-14T07:25:47.621Z,2.72
2023-02-14T07:28:16.551Z,2.71
2023-02-14T07:30:47.678Z,2.74
2023-02-14T07:33:17.362Z,2.73
2023-02-14T07:35:49.205Z,2.73
2023-02-14T07:38:18.199Z,2.71
2023-02-14T07:40:51.796Z,2.71
2023-02-14T07:43:21.685Z,2.74
2023-02-14T07:45:50.321Z,2.80
2023-02-14T07:48:19.506Z,2.86
2023-02-14T07:50:48.900Z,2.91
2023-02-14T07:53:17.738Z,2.94
2023-02-14T07:55:50.576Z,2.95
2023-02-14T07:58:19.493Z,2.95
2023-02-14T08:00:48.311Z,2.95
2023-02-14T08:03:18.108Z,2.95
2023-02-14T08:05:56.473Z,2.95
2023-02-14T08:08:26.860Z,2.95
2023-02-14T08:10:56.114Z,2.96
2023-02-14T08:13:25.018Z,2.96
2023-02-14T08:16:07.108Z,2.95
2023-02-14T08:18:38.447Z,2.94
2023-02-14T08:21:11.202Z,2.92
2023-02-14T08:23:40.040Z,2.91
2023-02-14T08:26:11.795Z,2.91
2023-02-14T08:28:40.973Z,2.85
2023-02-14T08:31:10.732Z,2.83
2023-02-14T08:33:39.724Z,2.82
2023-02-14T08:36:09.033Z,2.82
2023-02-14T08:38:38.019Z,2.87
2023-02-14T08:41:09.621Z,2.93
2023-02-14T08:43:38.584Z,3.00
2023-02-14T08:46:07.612Z,3.06
2023-02-14T08:48:39.208Z,3.11
2023-02-14T08:51:09.751Z,3.14
2023-02-14T08:53:38.740Z,3.08
2023-02-14T08:56:10.073Z,3.03
2023-02-14T08:58:39.537Z,3.05
2023-02-14T09:01:11.460Z,3.08
2023-02-14T09:03:40.842Z,3.07
2023-02-14T09:06:13.783Z,3.07
2023-02-14T09:08:42.981Z,3.14
2023-02-14T09:11:18.136Z,3.21
2023-02-14T09:13:49.705Z,3.26
2023-02-14T09:16:20.005Z,3.26
2023-02-14T09:18:49.170Z,3.27
2023-02-14T09:21:20.384Z,3.28
2023-02-14T09:23:49.772Z,3.30
2023-02-14T09:26:19.250Z,3.37
2023-02-14T09:28:48.305Z,3.41
2023-02-14T09:31:20.409Z,3.42
2023-02-14T09:34:08.950Z,3.42
2023-02-14T09:36:37.599Z,3.44
2023-02-14T09:39:06.424Z,3.43
2023-02-14T09:42:01.080Z,3.40
2023-02-14T09:44:34.469Z,3.41
2023-02-14T09:47:12.624Z,3.44
2023-02-14T09:49:41.873Z,3.47
2023-02-14T09:52:15.814Z,3.54
2023-02-14T09:54:51.193Z,3.61
2023-02-14T09:57:33.309Z,3.61
2023-02-14T10:00:12.939Z,3.62
2023-02-14T10:02:54.680Z,3.65
2023-02-14T10:05:28.192Z,3.66
2023-02-14T10:08:04.298Z,3.67
2023-02-14T10:10:40.131Z,3.68
2023-02-14T10:13:22.492Z,3.70
2023-02-14T10:15:59.464Z,3.68
2023-02-14T10:18:38.325Z,3.62
2023-02-14T10:21:12.764Z,3.53
2023-02-14T10:23:49.273Z,3.54
2023-02-14T10:26:24.801Z,3.61
2023-02-14T10:28:55.357Z,3.69
2023-02-14T10:31:33.192Z,3.75
2023-02-14T10:34:08.528Z,3.79
2023-02-14T10:36:50.233Z,3.88
2023-02-14T10:39:36.670Z,3.95
2023-02-14T10:42:16.392Z,3.99
2023-02-14T10:44:58.312Z,4.03
2023-02-14T10:47:42.073Z,4.07
2023-02-14T10:50:19.235Z,4.09
2023-02-14T10:52:58.920Z,4.11
2023-02-14T10:55:44.973Z,4.18
2023-02-14T10:58:20.107Z,4.21
2023-02-14T11:00:58.695Z,4.21
2023-02-14T11:03:29.058Z,4.18
2023-02-14T11:05:58.734Z,4.14
2023-02-14T11:08:32.370Z,4.16
2023-02-14T11:11:08.017Z,4.20
2023-02-14T11:13:38.846Z,4.22
2023-02-14T11:16:10.370Z,4.23
2023-02-14T11:18:40.826Z,4.22
2023-02-14T11:21:12.346Z,4.23
2023-02-14T11:23:43.026Z,4.26
2023-02-14T11:26:22.980Z,4.32
2023-02-14T11:28:56.368Z,4.36
2023-02-14T11:31:33.675Z,4.39
2023-02-14T11:34:05.225Z,4.43
2023-02-14T11:36:41.818Z,4.46
2023-02-14T11:39:25.866Z,4.47
2023-02-14T11:41:56.715Z,4.44
2023-02-14T11:44:27.508Z,4.43
2023-02-14T11:47:06.855Z,4.44
2023-02-14T11:49:37.290Z,4.47
2023-02-14T11:52:15.690Z,4.53
2023-02-14T11:54:49.043Z,4.54
2023-02-14T11:57:23.308Z,4.52
2023-02-14T11:59:54.496Z,4.43
2023-02-14T12:02:33.020Z,4.38
2023-02-14T12:05:06.282Z,4.43
2023-02-14T12:07:37.932Z,4.50
2023-02-14T12:10:21.922Z,4.57
2023-02-14T12:12:53.189Z,4.61
2023-02-14T12:15:37.549Z,4.64
2023-02-14T12:18:37.921Z,4.62
2023-02-14T12:21:23.785Z,4.64
2023-02-14T12:24:00.844Z,4.63
2023-02-14T12:26:39.030Z,4.63
2023-02-14T12:29:17.866Z,4.66
2023-02-14T12:31:50.409Z,4.74
2023-02-14T12:34:20.340Z,4.79
2023-02-14T12:37:08.452Z,4.81
2023-02-14T12:39:48.927Z,4.78
2023-02-14T12:42:37.874Z,4.67
2023-02-14T12:45:17.451Z,4.57
2023-02-14T12:48:01.347Z,4.56
2023-02-14T12:50:38.136Z,4.63
2023-02-14T12:53:35.051Z,4.64
2023-02-14T12:56:13.686Z,4.64
2023-02-14T12:58:53.923Z,4.66
2023-02-14T13:02:01.288Z,4.67
2023-02-14T13:05:06.397Z,4.69
2023-02-14T13:07:54.357Z,4.73
2023-02-14T13:10:44.072Z,4.78
2023-02-14T13:13:23.442Z,4.85
2023-02-14T13:16:00.850Z,4.89
2023-02-14T13:18:39.513Z,4.89
2023-02-14T13:21:14.108Z,4.91
2023-02-14T13:23:46.409Z,4.95
2023-02-14T13:26:20.337Z,4.98
2023-02-14T13:28:52.534Z,4.96
2023-02-14T13:31:22.610Z,4.99
2023-02-14T13:33:58.478Z,4.99
2023-02-14T13:36:28.830Z,4.96
2023-02-14T13:38:59.350Z,4.97
2023-02-14T13:41:30.459Z,4.98
2023-02-14T13:44:01.095Z,4.95
2023-02-14T13:46:51.965Z,4.94
2023-02-14T13:49:29.617Z,4.99
2023-02-14T13:52:03.006Z,5.01
2023-02-14T13:54:41.368Z,4.98
2023-02-14T13:57:30.638Z,4.94
2023-02-14T14:00:37.392Z,4.95
2023-02-14T14:03:07.588Z,4.99
2023-02-14T14:06:06.830Z,5.00
2023-02-14T14:08:40.458Z,4.97
2023-02-14T14:11:34.115Z,4.97
2023-02-14T14:14:04.075Z,4.92
2023-02-14T14:16:36.306Z,4.88
2023-02-14T14:19:31.272Z,4.83
2023-02-14T14:22:05.930Z,4.78
2023-02-14T14:24:36.235Z,4.78
2023-02-14T14:27:13.950Z,4.80
2023-02-14T14:29:50.016Z,4.79
2023-02-14T14:32:25.744Z,4.81
2023-02-14T14:34:57.916Z,4.83
2023-02-14T14:37:31.801Z,4.81
2023-02-14T14:40:03.764Z,4.75
2023-02-14T14:42:36.746Z,4.72
2023-02-14T14:45:09.274Z,4.72
2023-02-14T14:47:48.723Z,4.70
2023-02-14T14:50:29.760Z,4.69
2023-02-14T14:53:36.782Z,4.72
2023-02-14T14:56:51.878Z,4.75
2023-02-14T14:59:43.193Z,4.76
2023-02-14T15:02:39.326Z,4.76
2023-02-14T15:05:49.325Z,4.74
2023-02-14T15:11:57.667Z,4.66
2023-02-14T15:14:43.858Z,4.63
2023-02-14T15:18:05.195Z,4.61
2023-02-14T15:21:06.106Z,4.57
2023-02-14T15:23:59.589Z,4.59
2023-02-14T15:27:01.504Z,4.62
2023-02-14T15:29:56.397Z,4.61
2023-02-14T15:32:28.923Z,4.59
2023-02-14T15:34:59.754Z,4.59
2023-02-14T15:37:32.274Z,4.57
2023-02-14T15:40:02.205Z,4.56
2023-02-14T15:42:33.914Z,4.53
2023-02-14T15:45:21.882Z,4.50
2023-02-14T15:47:56.527Z,4.48
2023-02-14T15:50:29.475Z,4.49
2023-02-14T15:53:04.033Z,4.51
2023-02-14T15:55:35.256Z,4.48
2023-02-14T15:58:06.624Z,4.44
2023-02-14T16:00:36.502Z,4.45
2023-02-14T16:03:12.860Z,4.43
2023-02-14T16:05:50.763Z,4.38
2023-02-14T16:08:29.765Z,4.34
2023-02-14T16:11:08.864Z,4.30
2023-02-14T16:13:41.438Z,4.29
2023-02-14T16:16:14.714Z,4.29
2023-02-14T16:18:48.949Z,4.29
2023-02-14T16:21:20.052Z,4.29
2023-02-14T16:24:12.796Z,4.28
2023-02-14T16:26:43.508Z,4.27
2023-02-14T16:29:15.618Z,4.22
2023-02-14T16:32:14.210Z,4.20
2023-02-14T16:34:40.365Z,4.14
2023-02-14T16:37:18.996Z,4.10
2023-02-14T16:39:57.621Z,4.08
2023-02-14T16:42:32.226Z,4.09
2023-02-14T16:45:01.488Z,4.07
2023-02-14T16:47:30.739Z,4.08
2023-02-14T16:49:59.786Z,4.09
2023-02-14T16:52:29.716Z,4.11
2023-02-14T16:54:58.956Z,4.08
2023-02-14T16:57:35.130Z,4.05
2023-02-14T17:00:08.653Z,4.02
2023-02-14T17:05:23.810Z,3.96
2023-02-14T17:07:52.768Z,3.95
2023-02-14T17:10:22.072Z,3.96
2023-02-14T17:12:52.266Z,3.96
2023-02-14T17:15:24.325Z,4.00
2023-02-14T17:17:58.993Z,4.00
2023-02-14T17:20:29.849Z,3.98
2023-02-14T17:22:59.095Z,3.97
2023-02-14T17:25:28.042Z,3.96
2023-02-14T17:27:56.853Z,3.95
2023-02-14T17:30:28.484Z,3.92
2023-02-14T17:32:58.185Z,3.89
2023-02-14T17:35:27.126Z,3.87
2023-02-14T17:37:56.459Z,3.88
2023-02-14T17:40:25.198Z,3.88
2023-02-14T17:42:54.761Z,3.90
2023-02-14T17:45:23.935Z,3.91
2023-02-14T17:47:52.685Z,3.90
2023-02-14T17:50:21.748Z,3.89
2023-02-14T17:52:54.599Z,3.86
2023-02-14T17:55:23.639Z,3.84
2023-02-14T17:57:52.403Z,3.83
2023-02-14T18:00:23.332Z,3.82
2023-02-14T18:02:52.590Z,3.82
2023-02-14T18:05:22.211Z,3.80
2023-02-14T18:07:52.374Z,3.80
2023-02-14T18:10:21.318Z,3.80
2023-02-14T18:12:50.013Z,3.78
2023-02-14T18:15:19.355Z,3.75
2023-02-14T18:17:50.517Z,3.70
2023-02-14T18:20:20.261Z,3.68
2023-02-14T18:22:50.031Z,3.65
2023-02-14T18:25:19.174Z,3.63
2023-02-14T18:27:48.665Z,3.59
2023-02-14T18:30:18.033Z,3.57
2023-02-14T18:32:47.309Z,3.53
2023-02-14T18:35:16.494Z,3.52
2023-02-14T18:37:49.908Z,3.50
2023-02-14T18:40:19.887Z,3.49
2023-02-14T18:42:49.314Z,3.51
2023-02-14T18:45:18.508Z,3.53
2023-02-14T18:47:51.862Z,3.54
2023-02-14T18:50:21.000Z,3.53
2023-02-14T18:52:50.220Z,3.54
2023-02-14T18:55:19.687Z,3.58
2023-02-14T18:57:53.501Z,3.57
2023-02-14T19:00:32.235Z,3.55
2023-02-14T19:03:04.256Z,3.57
2023-02-14T19:05:37.085Z,3.59
2023-02-14T19:08:09.651Z,3.62
2023-02-14T19:10:43.646Z,3.65
2023-02-14T19:13:13.420Z,3.68
2023-02-14T19:15:47.003Z,3.64
2023-02-14T19:18:19.832Z,3.59
2023-02-14T19:20:49.478Z,3.57
2023-02-14T19:23:22.982Z,3.53
2023-02-14T19:25:54.761Z,3.51
2023-02-14T19:28:27.709Z,3.48
2023-02-14T19:31:00.207Z,3.48
2023-02-14T19:33:32.486Z,3.45
2023-02-14T19:36:12.257Z,3.44
2023-02-14T19:38:45.504Z,3.45
2023-02-14T19:41:20.022Z,3.46
2023-02-14T19:43:51.776Z,3.45
2023-02-14T19:46:23.190Z,3.43
2023-02-14T19:48:52.726Z,3.42
2023-02-14T19:51:25.633Z,3.43
2023-02-14T19:53:55.302Z,3.39
2023-02-14T19:56:27.184Z,3.34
2023-02-14T19:58:58.096Z,3.30
2023-02-14T20:01:33.289Z,3.29
2023-02-14T20:04:02.837Z,3.28
2023-02-14T20:06:31.967Z,3.29
2023-02-14T20:09:00.739Z,3.30
2023-02-14T20:11:32.960Z,3.26
2023-02-14T20:14:02.444Z,3.21
2023-02-14T20:16:34.503Z,3.17
2023-02-14T20:19:07.442Z,3.12
2023-02-14T20:21:36.951Z,3.04
2023-02-14T20:24:11.120Z,2.95
2023-02-14T20:26:41.953Z,2.86
2023-02-14T20:29:11.510Z,2.77
2023-02-14T20:31:44.978Z,2.73
2023-02-14T20:34:15.997Z,2.69
2023-02-14T20:36:49.359Z,2.66
2023-02-14T20:39:20.259Z,2.64
2023-02-14T20:41:53.754Z,2.63
2023-02-14T20:44:23.245Z,2.60
2023-02-14T20:46:53.912Z,2.54
2023-02-14T20:49:27.705Z,2.51
2023-02-14T20:52:00.172Z,2.51
2023-02-14T20:54:30.252Z,2.48
2023-02-14T20:57:02.756Z,2.48
2023-02-14T20:59:32.405Z,2.50
2023-02-14T21:02:01.009Z,2.49
2023-02-14T21:04:29.999Z,2.53
2023-02-14T21:07:00.012Z,2.56
2023-02-14T21:09:30.077Z,2.62
2023-02-14T21:11:58.884Z,2.66
2023-02-14T21:14:28.086Z,2.65
2023-02-14T21:16:56.922Z,2.69
2023-02-14T21:19:28.016Z,2.69
2023-02-14T21:21:56.841Z,2.64
2023-02-14T21:24:28.643Z,2.63
2023-02-14T21:26:57.319Z,2.62
2023-02-14T21:29:28.780Z,2.61
2023-02-14T21:31:57.943Z,2.60
2023-02-14T21:34:27.385Z,2.62
2023-02-14T21:37:01.409Z,2.63
2023-02-14T21:39:30.606Z,2.67
2023-02-14T21:42:00.610Z,2.71
2023-02-14T21:44:47.996Z,2.73
2023-02-14T21:47:20.970Z,2.72
2023-02-14T21:50:09.258Z,2.75
2023-02-14T21:52:38.641Z,2.78
2023-02-14T21:55:08.228Z,2.82
2023-02-14T21:57:36.983Z,2.85
2023-02-14T22:00:08.712Z,2.85
2023-02-14T22:02:39.838Z,2.87
2023-02-14T22:05:08.933Z,2.87
2023-02-14T22:07:38.278Z,2.89
2023-02-14T22:10:09.844Z,2.93
2023-02-14T22:12:38.642Z,2.94
2023-02-14T22:15:09.160Z,2.96
2023-02-14T22:17:38.495Z,2.98
2023-02-14T22:20:10.645Z,3.02
2023-02-14T22:22:41.339Z,3.07
2023-02-14T22:25:10.136Z,3.13
2023-02-14T22:27:40.970Z,3.20
2023-02-14T22:30:13.242Z,3.24
2023-02-14T22:32:43.180Z,3.23
2023-02-14T22:35:12.556Z,3.21
2023-02-14T22:37:43.752Z,3.21
2023-02-14T22:40:13.261Z,3.21
2023-02-14T22:42:42.875Z,3.20
2023-02-14T22:45:12.326Z,3.21
2023-02-14T22:47:42.069Z,3.22
2023-02-14T22:50:13.269Z,3.26
2023-02-14T22:52:44.909Z,3.28
2023-02-14T22:55:15.111Z,3.32
2023-02-14T22:57:47.621Z,3.31
2023-02-14T23:00:17.440Z,3.28
2023-02-14T23:02:48.706Z,3.22
2023-02-14T23:05:17.787Z,3.21
2023-02-14T23:07:49.428Z,3.22
2023-02-14T23:10:19.237Z,3.21
2023-02-14T23:13:07.408Z,3.23
2023-02-14T23:15:56.517Z,3.23
2023-02-14T23:18:42.792Z,3.24
2023-02-14T23:21:31.960Z,3.24
2023-02-14T23:23:59.821Z,3.27
2023-02-14T23:26:29.753Z,3.29
2023-02-14T23:28:58.941Z,3.28
2023-02-14T23:31:29.633Z,3.27
2023-02-14T23:33:59.149Z,3.30
2023-02-14T23:36:30.496Z,3.29
2023-02-14T23:39:00.028Z,3.28
2023-02-14T23:41:47.742Z,3.29
2023-02-14T23:44:19.490Z,3.31
2023-02-14T23:46:52.400Z,3.34
2023-02-14T23:49:22.971Z,3.35
2023-02-14T23:51:54.056Z,3.38
2023-02-14T23:54:24.272Z,3.41
2023-02-14T23:56:54.128Z,3.41
2023-02-14T23:59:25.079Z,3.42
